Terminal Aerodrome Forecast
Issued by NWS

Home | Current Version | Previous Version | Text Only | Print | Product List | Glossary On
Versions: 1 2 3 4 5 6 7 8 9 10 11 12 13
000
FTUS42 KMLB 210534
TAFFPR
TAF
KFPR 210534Z 2106/2206 00000KT P6SM BKN150 OVC250
     FM210800 VRB03KT 2SM BR SCT012
     FM211400 26005KT P6SM SCT015 BKN100
     FM211700 06008KT P6SM VCSH BKN030 BKN050
     FM220000 07008KT P6SM SCT030 BKN150=

USA.gov is the U.S. government's official web portal to all federal, state and local government web resources and services.